Darstellungsparameter: Aktuell verwendete Einstellungen:
Skalierung der Graphiken ... ?
xyx+y,   Skalierungsfaktor:      Skalierung: Modus: x, Faktor: 1
Darstellungszeitraum ... ?
Vom - - bis: - -   Zeitraum: 29.12.2010 - 29.12.2010
Min/Max/Avg-Anzeige ... ?
Zeige MMA aktuell
Zeige MMA Monat
Zeige MMA alles
Zeige --A aktuell
Zeige --A Monat
Zeige --A alles
Keine MMA-Anzeige
MMA:
Average (ber die Originaldaten)
MMA-Basis: 29.12.2010 - 29.12.2010
Quicknavigation für Darstellung... ?
Tage:      1T, 2T, 3T, 5T -1T -2T -3T -5T +1T +2T +3T +5T
Wochen: 1W, 2W, 3W -1W -2W -3W +1W +2W +3W
Monate: 1M, 3M, 6M -1M -3M -6M +1M +3M +6M
Jahre:    1J, 3J, 5J, 10J -1J -3J -5J -10J +1J +3J +5J +10J
Nutze für die Darstellung ... ?
Originaldaten oder Mittelwerte auf ...
Stundenbasis Tagesbasis Wochenbasis
Monatsbasis Jahresbasis      Datenbasis: Original-Daten
Darstellen als:
Statistik (Auto) Statistik J:M      Darstellung:
Zur Graphik,    zurück zur Übersicht aller Sensoren.
 
Tabellarische Datenbersicht: ?
 
Sensor: Nr:Datum:Temp:Abs-Feuchte:Windchill:Wind:
Aussen-T/F 1 29-12-2010 00:00:03 -1.3 C 3.54 g/m*3 -1.3 C 0 km/h
2 29-12-2010 00:12:03 -1.4 C 3.52 g/m*3 -1.4 C 0 km/h
3 29-12-2010 00:24:03 -1.3 C 3.59 g/m*3 -1.3 C 0 km/h
4 29-12-2010 00:36:03 -1.3 C 3.59 g/m*3 -1.3 C 0 km/h
5 29-12-2010 00:48:03 -1.3 C 3.59 g/m*3 -1.3 C 0 km/h
6 29-12-2010 01:00:03 -1.3 C 3.59 g/m*3 -1.3 C 0 km/h
7 29-12-2010 01:12:03 -1.3 C 3.63 g/m*3 -1.3 C 0 km/h
8 29-12-2010 01:24:03 -1.3 C 3.63 g/m*3 -1.3 C 0 km/h
9 29-12-2010 01:36:03 -1.3 C 3.63 g/m*3 -1.3 C 0 km/h
10 29-12-2010 01:48:03 -1.3 C 3.63 g/m*3 -1.3 C 0 km/h
11 29-12-2010 02:00:03 -1.3 C 3.63 g/m*3 -1.3 C 0 km/h
12 29-12-2010 02:12:04 -1.3 C 3.63 g/m*3 -1.3 C 0 km/h
13 29-12-2010 02:24:04 -1.3 C 3.63 g/m*3 -1.3 C 0 km/h
14 29-12-2010 02:36:04 -1.3 C 3.63 g/m*3 -1.3 C 0 km/h
15 29-12-2010 02:48:04 -1.3 C 3.67 g/m*3 -1.3 C 0 km/h
16 29-12-2010 03:00:04 -1.2 C 3.66 g/m*3 -1.2 C 0 km/h
17 29-12-2010 03:12:04 -1.3 C 3.63 g/m*3 -1.3 C 0 km/h
18 29-12-2010 03:24:04 -1.2 C 3.7 g/m*3 -1.2 C 0 km/h
19 29-12-2010 03:36:04 -1.2 C 3.7 g/m*3 -1.2 C 0 km/h
20 29-12-2010 03:48:04 -1.2 C 3.7 g/m*3 -1.2 C 0 km/h
21 29-12-2010 04:00:04 -1.2 C 3.7 g/m*3 -1.2 C 0 km/h
22 29-12-2010 04:12:04 -1.2 C 3.7 g/m*3 -1.2 C 0 km/h
23 29-12-2010 04:24:04 -1.3 C 3.63 g/m*3 -1.3 C 0 km/h
24 29-12-2010 04:36:04 -1.3 C 3.63 g/m*3 -1.3 C 0 km/h
25 29-12-2010 04:48:04 -1.4 C 3.65 g/m*3 -1.4 C 0 km/h
Sensor: Nr:Datum:Temp:Abs-Feuchte:Windchill:Wind:
Aussen-T/F 26 29-12-2010 05:00:04 -1.4 C 3.65 g/m*3 -1.4 C 0 km/h
27 29-12-2010 05:12:04 -1.3 C 3.67 g/m*3 -1.3 C 0 km/h
28 29-12-2010 05:24:04 -1.3 C 3.67 g/m*3 -1.3 C 0 km/h
29 29-12-2010 05:36:04 -1.3 C 3.67 g/m*3 -1.3 C 0 km/h
30 29-12-2010 05:48:04 -1.2 C 3.7 g/m*3 -1.2 C 0 km/h
31 29-12-2010 06:00:04 -1.2 C 3.7 g/m*3 -1.2 C 0 km/h
32 29-12-2010 06:12:05 -1.3 C 3.67 g/m*3 -1.3 C 0 km/h
33 29-12-2010 06:24:05 -1.2 C 3.74 g/m*3 -1.2 C 0 km/h
34 29-12-2010 06:36:05 -1.2 C 3.74 g/m*3 -1.2 C 0 km/h
35 29-12-2010 06:48:05 -1.1 C 3.77 g/m*3 -1.1 C 0 km/h
36 29-12-2010 07:00:05 -1.1 C 3.77 g/m*3 -1.1 C 0 km/h
37 29-12-2010 07:12:05 -1.1 C 3.77 g/m*3 -1.1 C 0 km/h
38 29-12-2010 07:24:05 -1.1 C 3.77 g/m*3 -1.1 C 0 km/h
39 29-12-2010 07:36:05 -1.1 C 3.82 g/m*3 -1.1 C 0 km/h
40 29-12-2010 07:48:01 -1.1 C 3.82 g/m*3 -1.1 C 0 km/h
41 29-12-2010 08:00:01 -1.1 C 3.82 g/m*3 -1.1 C 0 km/h
42 29-12-2010 08:12:02 -1.1 C 3.82 g/m*3 -1.1 C 0 km/h
43 29-12-2010 08:24:01 -1.2 C 3.79 g/m*3 -1.2 C 0 km/h
44 29-12-2010 08:36:01 -1.1 C 3.86 g/m*3 -1.1 C 0 km/h
45 29-12-2010 08:48:01 -1 C 3.89 g/m*3 -1 C 0 km/h
46 29-12-2010 09:00:01 -0.9 C 3.91 g/m*3 -0.9 C 0 km/h
47 29-12-2010 09:12:02 -0.9 C 3.87 g/m*3 -0.9 C 0 km/h
48 29-12-2010 09:24:02 -0.7 C 3.92 g/m*3 -0.7 C 0 km/h
49 29-12-2010 09:36:01 -0.7 C 3.88 g/m*3 -0.7 C 0 km/h
50 29-12-2010 09:48:01 -0.5 C 3.84 g/m*3 -0.5 C 0 km/h
Sensor: Nr:Datum:Temp:Abs-Feuchte:Windchill:Wind:
Aussen-T/F 51 29-12-2010 10:00:01 -0.2 C 3.87 g/m*3 -0.2 C 0 km/h
52 29-12-2010 10:12:02 0 C 3.78 g/m*3 0 C 0 km/h
53 29-12-2010 10:24:01 0.2 C 3.73 g/m*3 0.2 C 0 km/h
54 29-12-2010 10:36:01 0.3 C 3.71 g/m*3 0.3 C 0 km/h
55 29-12-2010 10:48:01 0.4 C 3.64 g/m*3 0.4 C 0 km/h
56 29-12-2010 11:00:01 0.4 C 3.64 g/m*3 0.4 C 0 km/h
57 29-12-2010 11:12:02 0.6 C 3.64 g/m*3 0.6 C 0 km/h
58 29-12-2010 11:24:01 0.6 C 3.59 g/m*3 0.6 C 0 km/h
59 29-12-2010 11:36:01 0.7 C 3.61 g/m*3 0.7 C 0 km/h
60 29-12-2010 11:48:01 0.6 C 3.53 g/m*3 0.6 C 0 km/h
61 29-12-2010 12:00:01 0.9 C 3.66 g/m*3 0.9 C 0 km/h
62 29-12-2010 12:12:01 0.9 C 3.61 g/m*3 0.9 C 0 km/h
63 29-12-2010 12:24:02 0.7 C 3.56 g/m*3 0.7 C 0 km/h
64 29-12-2010 12:36:01 1 C 3.53 g/m*3 1 C 0 km/h
65 29-12-2010 12:48:03 0.9 C 3.56 g/m*3 0.9 C 0 km/h
66 29-12-2010 13:00:03 1.3 C 3.66 g/m*3 1.3 C 0 km/h
67 29-12-2010 13:12:02 1.2 C 3.58 g/m*3 1.2 C 0 km/h
68 29-12-2010 13:24:02 1.4 C 3.63 g/m*3 1.4 C 0 km/h
69 29-12-2010 13:36:02 1.5 C 3.6 g/m*3 1.5 C 0 km/h
70 29-12-2010 13:48:02 1.3 C 3.6 g/m*3 1.3 C 0 km/h
71 29-12-2010 14:00:02 1.6 C 3.68 g/m*3 1.6 C 0 km/h
72 29-12-2010 14:12:01 1.7 C 3.65 g/m*3 1.7 C 0 km/h
73 29-12-2010 14:24:02 1.7 C 3.65 g/m*3 1.7 C 0 km/h
74 29-12-2010 14:36:02 2.1 C 3.69 g/m*3 2.1 C 0 km/h
75 29-12-2010 14:48:01 1.7 C 3.65 g/m*3 1.7 C 0 km/h
Sensor: Nr:Datum:Temp:Abs-Feuchte:Windchill:Wind:
Aussen-T/F 76 29-12-2010 15:00:01 1.3 C 3.66 g/m*3 1.3 C 0 km/h
77 29-12-2010 15:12:02 1.3 C 3.71 g/m*3 1.3 C 0 km/h
78 29-12-2010 15:24:01 1.2 C 3.74 g/m*3 1.2 C 0 km/h
79 29-12-2010 15:36:01 1.1 C 3.76 g/m*3 1.1 C 0 km/h
80 29-12-2010 15:48:01 1 C 3.79 g/m*3 1 C 0 km/h
81 29-12-2010 16:00:01 0.8 C 3.84 g/m*3 0.8 C 0 km/h
82 29-12-2010 16:12:02 0.7 C 3.81 g/m*3 0.7 C 0 km/h
83 29-12-2010 16:24:01 0.6 C 3.89 g/m*3 0.6 C 0 km/h
84 29-12-2010 16:36:02 0.5 C 3.86 g/m*3 0.5 C 0 km/h
85 29-12-2010 16:48:01 0.5 C 3.86 g/m*3 0.5 C 0 km/h
86 29-12-2010 17:00:01 0.4 C 3.84 g/m*3 0.4 C 0 km/h
87 29-12-2010 17:12:02 0.3 C 3.81 g/m*3 0.3 C 0 km/h
88 29-12-2010 17:24:01 0.3 C 3.86 g/m*3 0.3 C 0 km/h
89 29-12-2010 17:36:02 0.2 C 3.88 g/m*3 0.2 C 0 km/h
90 29-12-2010 17:48:01 0.2 C 3.88 g/m*3 0.2 C 0 km/h
91 29-12-2010 18:00:01 0.2 C 3.88 g/m*3 0.2 C 0 km/h
92 29-12-2010 18:12:02 0.2 C 3.88 g/m*3 0.2 C 0 km/h
93 29-12-2010 18:24:02 0.1 C 3.85 g/m*3 0.1 C 0 km/h
94 29-12-2010 18:36:01 0.1 C 3.9 g/m*3 0.1 C 0 km/h
95 29-12-2010 18:48:02 0.1 C 3.95 g/m*3 0.1 C 0 km/h
96 29-12-2010 19:00:02 0.1 C 3.95 g/m*3 0.1 C 0 km/h
97 29-12-2010 19:12:01 0.1 C 3.95 g/m*3 0.1 C 0 km/h
98 29-12-2010 19:24:02 0.1 C 4 g/m*3 0.1 C 0 km/h
99 29-12-2010 19:36:01 0 C 3.97 g/m*3 0 C 0 km/h
100 29-12-2010 19:48:02 0 C 3.97 g/m*3 0 C 0 km/h
Sensor: Nr:Datum:Temp:Abs-Feuchte:Windchill:Wind:
Aussen-T/F 101 29-12-2010 20:00:02 0 C 3.97 g/m*3 0 C 0 km/h
102 29-12-2010 20:12:01 0 C 3.97 g/m*3 0 C 0 km/h
103 29-12-2010 20:24:01 0 C 3.97 g/m*3 0 C 0 km/h
104 29-12-2010 20:36:01 -0.1 C 3.95 g/m*3 -0.1 C 0 km/h
105 29-12-2010 20:48:02 -0.1 C 3.95 g/m*3 -0.1 C 0 km/h
106 29-12-2010 21:00:02 -0.1 C 3.95 g/m*3 -0.1 C 0 km/h
107 29-12-2010 21:12:02 -0.2 C 3.92 g/m*3 -0.2 C 0 km/h
108 29-12-2010 21:24:02 -0.2 C 3.92 g/m*3 -0.2 C 0 km/h
109 29-12-2010 21:36:02 -0.2 C 3.92 g/m*3 -0.2 C 0 km/h
110 29-12-2010 21:48:01 -0.2 C 3.92 g/m*3 -0.2 C 0 km/h
111 29-12-2010 22:00:01 -0.2 C 3.92 g/m*3 -0.2 C 0 km/h
112 29-12-2010 22:12:02 -0.3 C 3.89 g/m*3 -0.3 C 0 km/h
113 29-12-2010 22:24:01 -0.3 C 3.84 g/m*3 -0.3 C 0 km/h
114 29-12-2010 22:36:01 -0.3 C 3.8 g/m*3 -0.3 C 0 km/h
115 29-12-2010 22:48:01 -0.5 C 3.74 g/m*3 -0.5 C 0 km/h
116 29-12-2010 23:00:01 -0.6 C 3.76 g/m*3 -0.6 C 0 km/h
117 29-12-2010 23:12:02 -0.6 C 3.81 g/m*3 -0.6 C 0 km/h
118 29-12-2010 23:24:02 -0.7 C 3.78 g/m*3 -0.7 C 0 km/h
119 29-12-2010 23:36:01 -0.7 C 3.83 g/m*3 -0.7 C 0 km/h
120 29-12-2010 23:49:59 -0.9 C 3.78 g/m*3 -0.9 C 0 km/h

Legende:
   Min
   Max


Maximal/Minimal-Werte vom 29.12.2010 - 29.12.2010

Sensor Min Max Avg
Temp
(Aussen-T/F)
-1.4 °C
29-12-2010  00:12:03
2.1 °C
29-12-2010  14:36:02
-0.26 °C
Abs-Feuchte
(Aussen-T/F)
3.52 g/m*3
29-12-2010  00:12:03
4 g/m*3
29-12-2010  19:24:02
3.72 g/m*3
Windchill
(Aussen-T/F)
-1.4 C
29-12-2010  00:12:03
2.1 C
29-12-2010  14:36:02
-0.25 C

Die Daten stammen von einer Davis Vantage Pro 2 Wetter-Station und werden unter Linux mit der Software wview2wettercgi und aufbereitet. Alle Angaben erfolgen ohne Gewähr für ihre Vollständigkeit oder Richtigkeit.
Kontakt: Rainer Krienke krienke@uni-koblenz.de . Meine Webseiten an der Uni Koblenz oder privat.
Version: $Revision: 0.78 $